sensor_id;sensor_type;location;lat;lon;timestamp;P1;durP1;ratioP1;P2;durP2;ratioP2
7573;SDS011;3828;48.922;9.116;2023-03-03T00:01:05;1.50;;;1.50;;
7573;SDS011;3828;48.922;9.116;2023-03-03T00:03:32;1.40;;;1.40;;
7573;SDS011;3828;48.922;9.116;2023-03-03T00:06:00;1.70;;;1.70;;
7573;SDS011;3828;48.922;9.116;2023-03-03T00:08:28;1.30;;;1.30;;
7573;SDS011;3828;48.922;9.116;2023-03-03T00:10:56;1.47;;;1.47;;
7573;SDS011;3828;48.922;9.116;2023-03-03T00:13:25;1.70;;;1.70;;
7573;SDS011;3828;48.922;9.116;2023-03-03T00:15:53;1.50;;;1.50;;
7573;SDS011;3828;48.922;9.116;2023-03-03T00:18:23;1.60;;;1.60;;
7573;SDS011;3828;48.922;9.116;2023-03-03T00:20:54;1.30;;;1.30;;
7573;SDS011;3828;48.922;9.116;2023-03-03T00:23:30;1.57;;;1.57;;
7573;SDS011;3828;48.922;9.116;2023-03-03T00:26:01;1.50;;;1.50;;
7573;SDS011;3828;48.922;9.116;2023-03-03T00:28:40;1.33;;;1.33;;
7573;SDS011;3828;48.922;9.116;2023-03-03T00:31:11;1.50;;;1.50;;
7573;SDS011;3828;48.922;9.116;2023-03-03T00:33:42;1.40;;;1.40;;
7573;SDS011;3828;48.922;9.116;2023-03-03T00:36:26;1.43;;;1.43;;
7573;SDS011;3828;48.922;9.116;2023-03-03T00:38:58;1.33;;;1.33;;
7573;SDS011;3828;48.922;9.116;2023-03-03T00:41:40;1.60;;;1.60;;
7573;SDS011;3828;48.922;9.116;2023-03-03T00:46:59;1.60;;;1.60;;
7573;SDS011;3828;48.922;9.116;2023-03-03T00:49:37;1.40;;;1.40;;
7573;SDS011;3828;48.922;9.116;2023-03-03T00:52:08;1.57;;;1.57;;
7573;SDS011;3828;48.922;9.116;2023-03-03T00:54:41;1.40;;;1.40;;
7573;SDS011;3828;48.922;9.116;2023-03-03T00:57:08;1.30;;;1.30;;
7573;SDS011;3828;48.922;9.116;2023-03-03T00:59:36;1.40;;;1.40;;
7573;SDS011;3828;48.922;9.116;2023-03-03T01:02:03;1.40;;;1.40;;
7573;SDS011;3828;48.922;9.116;2023-03-03T01:04:30;1.40;;;1.40;;
7573;SDS011;3828;48.922;9.116;2023-03-03T01:06:57;1.40;;;1.40;;
7573;SDS011;3828;48.922;9.116;2023-03-03T01:09:24;1.50;;;1.50;;
7573;SDS011;3828;48.922;9.116;2023-03-03T01:11:52;1.40;;;1.40;;
7573;SDS011;3828;48.922;9.116;2023-03-03T01:14:20;1.60;;;1.60;;
7573;SDS011;3828;48.922;9.116;2023-03-03T01:16:47;1.60;;;1.60;;
7573;SDS011;3828;48.922;9.116;2023-03-03T01:19:15;1.70;;;1.70;;
7573;SDS011;3828;48.922;9.116;2023-03-03T01:21:41;1.50;;;1.50;;
7573;SDS011;3828;48.922;9.116;2023-03-03T01:24:09;1.67;;;1.67;;
7573;SDS011;3828;48.922;9.116;2023-03-03T01:26:36;1.50;;;1.50;;
7573;SDS011;3828;48.922;9.116;2023-03-03T01:29:04;1.40;;;1.40;;
7573;SDS011;3828;48.922;9.116;2023-03-03T01:31:31;1.50;;;1.50;;
7573;SDS011;3828;48.922;9.116;2023-03-03T01:33:58;1.50;;;1.50;;
7573;SDS011;3828;48.922;9.116;2023-03-03T01:36:26;1.60;;;1.60;;
7573;SDS011;3828;48.922;9.116;2023-03-03T01:38:53;1.53;;;1.53;;
7573;SDS011;3828;48.922;9.116;2023-03-03T01:41:20;1.80;;;1.80;;
7573;SDS011;3828;48.922;9.116;2023-03-03T01:43:48;1.40;;;1.40;;
7573;SDS011;3828;48.922;9.116;2023-03-03T01:46:29;1.60;;;1.60;;
7573;SDS011;3828;48.922;9.116;2023-03-03T01:49:03;1.60;;;1.60;;
7573;SDS011;3828;48.922;9.116;2023-03-03T01:51:32;1.70;;;1.70;;
7573;SDS011;3828;48.922;9.116;2023-03-03T01:54:04;1.80;;;1.80;;
7573;SDS011;3828;48.922;9.116;2023-03-03T01:56:36;1.40;;;1.40;;
7573;SDS011;3828;48.922;9.116;2023-03-03T01:59:03;1.60;;;1.60;;
7573;SDS011;3828;48.922;9.116;2023-03-03T02:01:36;1.47;;;1.47;;
7573;SDS011;3828;48.922;9.116;2023-03-03T02:04:04;1.70;;;1.70;;
7573;SDS011;3828;48.922;9.116;2023-03-03T02:06:32;1.57;;;1.57;;
7573;SDS011;3828;48.922;9.116;2023-03-03T02:09:03;1.70;;;1.70;;
7573;SDS011;3828;48.922;9.116;2023-03-03T02:11:35;1.60;;;1.60;;
7573;SDS011;3828;48.922;9.116;2023-03-03T02:14:05;1.70;;;1.70;;
7573;SDS011;3828;48.922;9.116;2023-03-03T02:16:32;1.60;;;1.60;;
7573;SDS011;3828;48.922;9.116;2023-03-03T02:19:03;1.80;;;1.80;;
7573;SDS011;3828;48.922;9.116;2023-03-03T02:21:39;1.50;;;1.50;;
7573;SDS011;3828;48.922;9.116;2023-03-03T02:24:08;1.53;;;1.53;;
7573;SDS011;3828;48.922;9.116;2023-03-03T02:26:42;1.73;;;1.73;;
7573;SDS011;3828;48.922;9.116;2023-03-03T02:29:11;1.50;;;1.50;;
7573;SDS011;3828;48.922;9.116;2023-03-03T02:31:38;1.70;;;1.70;;
7573;SDS011;3828;48.922;9.116;2023-03-03T02:34:06;1.60;;;1.60;;
7573;SDS011;3828;48.922;9.116;2023-03-03T02:36:35;1.67;;;1.67;;
7573;SDS011;3828;48.922;9.116;2023-03-03T02:39:04;1.80;;;1.80;;
7573;SDS011;3828;48.922;9.116;2023-03-03T02:41:34;1.80;;;1.80;;
7573;SDS011;3828;48.922;9.116;2023-03-03T02:44:06;1.70;;;1.70;;
7573;SDS011;3828;48.922;9.116;2023-03-03T02:46:35;1.60;;;1.60;;
7573;SDS011;3828;48.922;9.116;2023-03-03T02:49:04;1.77;;;1.77;;
7573;SDS011;3828;48.922;9.116;2023-03-03T02:51:32;1.70;;;1.70;;
7573;SDS011;3828;48.922;9.116;2023-03-03T02:54:07;1.70;;;1.70;;
7573;SDS011;3828;48.922;9.116;2023-03-03T02:56:35;1.70;;;1.70;;
7573;SDS011;3828;48.922;9.116;2023-03-03T02:59:02;1.73;;;1.73;;
7573;SDS011;3828;48.922;9.116;2023-03-03T03:01:30;1.77;;;1.77;;
7573;SDS011;3828;48.922;9.116;2023-03-03T03:04:01;1.43;;;1.43;;
7573;SDS011;3828;48.922;9.116;2023-03-03T03:06:28;2.00;;;2.00;;
7573;SDS011;3828;48.922;9.116;2023-03-03T03:08:55;1.80;;;1.80;;
7573;SDS011;3828;48.922;9.116;2023-03-03T03:11:27;1.50;;;1.50;;
7573;SDS011;3828;48.922;9.116;2023-03-03T03:13:54;1.90;;;1.90;;
7573;SDS011;3828;48.922;9.116;2023-03-03T03:16:21;1.63;;;1.63;;
7573;SDS011;3828;48.922;9.116;2023-03-03T03:18:49;2.00;;;2.00;;
7573;SDS011;3828;48.922;9.116;2023-03-03T03:21:16;1.47;;;1.47;;
7573;SDS011;3828;48.922;9.116;2023-03-03T03:23:43;1.40;;;1.40;;
7573;SDS011;3828;48.922;9.116;2023-03-03T03:26:10;1.90;;;1.90;;
7573;SDS011;3828;48.922;9.116;2023-03-03T03:28:37;1.67;;;1.67;;
7573;SDS011;3828;48.922;9.116;2023-03-03T03:31:04;1.70;;;1.70;;
7573;SDS011;3828;48.922;9.116;2023-03-03T03:33:32;1.80;;;1.80;;
7573;SDS011;3828;48.922;9.116;2023-03-03T03:36:01;1.80;;;1.80;;
7573;SDS011;3828;48.922;9.116;2023-03-03T03:38:28;1.70;;;1.70;;
7573;SDS011;3828;48.922;9.116;2023-03-03T03:40:56;1.70;;;1.70;;
7573;SDS011;3828;48.922;9.116;2023-03-03T03:43:23;1.70;;;1.70;;
7573;SDS011;3828;48.922;9.116;2023-03-03T03:45:50;1.73;;;1.73;;
7573;SDS011;3828;48.922;9.116;2023-03-03T03:48:18;1.80;;;1.80;;
7573;SDS011;3828;48.922;9.116;2023-03-03T03:50:45;1.60;;;1.60;;
7573;SDS011;3828;48.922;9.116;2023-03-03T03:53:16;1.70;;;1.70;;
7573;SDS011;3828;48.922;9.116;2023-03-03T03:55:44;1.90;;;1.90;;
7573;SDS011;3828;48.922;9.116;2023-03-03T03:58:11;1.50;;;1.50;;
7573;SDS011;3828;48.922;9.116;2023-03-03T04:00:38;1.70;;;1.70;;
7573;SDS011;3828;48.922;9.116;2023-03-03T04:03:06;1.50;;;1.50;;
7573;SDS011;3828;48.922;9.116;2023-03-03T04:05:32;1.80;;;1.80;;
7573;SDS011;3828;48.922;9.116;2023-03-03T04:07:59;1.50;;;1.50;;
7573;SDS011;3828;48.922;9.116;2023-03-03T04:10:27;1.83;;;1.83;;
7573;SDS011;3828;48.922;9.116;2023-03-03T04:12:54;1.80;;;1.80;;
7573;SDS011;3828;48.922;9.116;2023-03-03T04:15:21;1.50;;;1.50;;
7573;SDS011;3828;48.922;9.116;2023-03-03T04:17:48;1.73;;;1.73;;
7573;SDS011;3828;48.922;9.116;2023-03-03T04:20:15;1.60;;;1.60;;
7573;SDS011;3828;48.922;9.116;2023-03-03T04:22:42;1.57;;;1.57;;
7573;SDS011;3828;48.922;9.116;2023-03-03T04:25:10;1.73;;;1.73;;
7573;SDS011;3828;48.922;9.116;2023-03-03T04:27:40;1.97;;;1.97;;
7573;SDS011;3828;48.922;9.116;2023-03-03T04:30:08;1.90;;;1.90;;
7573;SDS011;3828;48.922;9.116;2023-03-03T04:32:37;1.60;;;1.60;;
7573;SDS011;3828;48.922;9.116;2023-03-03T04:35:04;1.80;;;1.80;;
7573;SDS011;3828;48.922;9.116;2023-03-03T04:37:31;1.70;;;1.70;;
7573;SDS011;3828;48.922;9.116;2023-03-03T04:39:58;1.70;;;1.70;;
7573;SDS011;3828;48.922;9.116;2023-03-03T04:42:25;1.53;;;1.53;;
7573;SDS011;3828;48.922;9.116;2023-03-03T04:44:54;1.60;;;1.60;;
7573;SDS011;3828;48.922;9.116;2023-03-03T04:47:21;1.80;;;1.80;;
7573;SDS011;3828;48.922;9.116;2023-03-03T04:49:47;1.80;;;1.80;;
7573;SDS011;3828;48.922;9.116;2023-03-03T04:52:14;1.70;;;1.70;;
7573;SDS011;3828;48.922;9.116;2023-03-03T04:54:42;1.57;;;1.57;;
7573;SDS011;3828;48.922;9.116;2023-03-03T04:57:09;1.53;;;1.53;;
7573;SDS011;3828;48.922;9.116;2023-03-03T04:59:35;1.70;;;1.70;;
7573;SDS011;3828;48.922;9.116;2023-03-03T05:02:03;1.60;;;1.60;;
7573;SDS011;3828;48.922;9.116;2023-03-03T05:04:30;1.73;;;1.73;;
7573;SDS011;3828;48.922;9.116;2023-03-03T05:06:57;1.80;;;1.80;;
7573;SDS011;3828;48.922;9.116;2023-03-03T05:09:24;1.50;;;1.50;;
7573;SDS011;3828;48.922;9.116;2023-03-03T05:11:51;1.83;;;1.83;;
7573;SDS011;3828;48.922;9.116;2023-03-03T05:14:19;1.70;;;1.70;;
7573;SDS011;3828;48.922;9.116;2023-03-03T05:16:45;1.93;;;1.93;;
7573;SDS011;3828;48.922;9.116;2023-03-03T05:19:15;1.70;;;1.70;;
7573;SDS011;3828;48.922;9.116;2023-03-03T05:21:42;1.70;;;1.70;;
7573;SDS011;3828;48.922;9.116;2023-03-03T05:24:09;1.77;;;1.77;;
7573;SDS011;3828;48.922;9.116;2023-03-03T05:26:36;1.80;;;1.80;;
7573;SDS011;3828;48.922;9.116;2023-03-03T05:29:04;1.40;;;1.40;;
7573;SDS011;3828;48.922;9.116;2023-03-03T05:31:31;1.50;;;1.50;;
7573;SDS011;3828;48.922;9.116;2023-03-03T05:33:58;1.50;;;1.50;;
7573;SDS011;3828;48.922;9.116;2023-03-03T05:36:26;1.50;;;1.50;;
7573;SDS011;3828;48.922;9.116;2023-03-03T05:38:53;2.00;;;2.00;;
7573;SDS011;3828;48.922;9.116;2023-03-03T05:41:19;1.50;;;1.50;;
7573;SDS011;3828;48.922;9.116;2023-03-03T05:43:46;1.60;;;1.60;;
7573;SDS011;3828;48.922;9.116;2023-03-03T05:46:13;1.80;;;1.80;;
7573;SDS011;3828;48.922;9.116;2023-03-03T05:48:40;1.50;;;1.50;;
7573;SDS011;3828;48.922;9.116;2023-03-03T05:51:07;1.57;;;1.57;;
7573;SDS011;3828;48.922;9.116;2023-03-03T05:53:36;1.60;;;1.60;;
7573;SDS011;3828;48.922;9.116;2023-03-03T05:56:03;1.80;;;1.80;;
7573;SDS011;3828;48.922;9.116;2023-03-03T05:58:30;1.63;;;1.63;;
7573;SDS011;3828;48.922;9.116;2023-03-03T06:00:57;1.50;;;1.50;;
7573;SDS011;3828;48.922;9.116;2023-03-03T06:03:24;1.70;;;1.70;;
7573;SDS011;3828;48.922;9.116;2023-03-03T06:05:51;1.70;;;1.70;;
7573;SDS011;3828;48.922;9.116;2023-03-03T06:08:18;1.70;;;1.70;;
7573;SDS011;3828;48.922;9.116;2023-03-03T06:10:46;1.60;;;1.60;;
7573;SDS011;3828;48.922;9.116;2023-03-03T06:13:13;1.43;;;1.43;;
7573;SDS011;3828;48.922;9.116;2023-03-03T06:15:40;1.60;;;1.60;;
7573;SDS011;3828;48.922;9.116;2023-03-03T06:18:07;1.70;;;1.70;;
7573;SDS011;3828;48.922;9.116;2023-03-03T06:20:35;1.67;;;1.67;;
7573;SDS011;3828;48.922;9.116;2023-03-03T06:23:02;1.60;;;1.60;;
7573;SDS011;3828;48.922;9.116;2023-03-03T06:25:29;1.70;;;1.70;;
7573;SDS011;3828;48.922;9.116;2023-03-03T06:28:01;1.67;;;1.67;;
7573;SDS011;3828;48.922;9.116;2023-03-03T06:30:28;1.60;;;1.60;;
7573;SDS011;3828;48.922;9.116;2023-03-03T06:32:55;1.73;;;1.73;;
7573;SDS011;3828;48.922;9.116;2023-03-03T06:35:22;1.63;;;1.63;;
7573;SDS011;3828;48.922;9.116;2023-03-03T06:37:49;1.60;;;1.60;;
7573;SDS011;3828;48.922;9.116;2023-03-03T06:40:16;1.57;;;1.57;;
7573;SDS011;3828;48.922;9.116;2023-03-03T06:42:43;1.77;;;1.77;;
7573;SDS011;3828;48.922;9.116;2023-03-03T06:45:12;1.50;;;1.50;;
7573;SDS011;3828;48.922;9.116;2023-03-03T06:47:39;1.50;;;1.50;;
7573;SDS011;3828;48.922;9.116;2023-03-03T06:50:06;1.47;;;1.47;;
7573;SDS011;3828;48.922;9.116;2023-03-03T06:52:35;1.60;;;1.60;;
7573;SDS011;3828;48.922;9.116;2023-03-03T06:55:09;1.70;;;1.70;;
7573;SDS011;3828;48.922;9.116;2023-03-03T06:57:37;1.60;;;1.60;;
7573;SDS011;3828;48.922;9.116;2023-03-03T07:00:13;1.30;;;1.30;;
7573;SDS011;3828;48.922;9.116;2023-03-03T07:02:45;1.87;;;1.87;;
7573;SDS011;3828;48.922;9.116;2023-03-03T07:05:13;1.70;;;1.70;;
7573;SDS011;3828;48.922;9.116;2023-03-03T07:07:41;1.60;;;1.60;;
7573;SDS011;3828;48.922;9.116;2023-03-03T07:10:15;1.40;;;1.40;;
7573;SDS011;3828;48.922;9.116;2023-03-03T07:12:47;1.70;;;1.70;;
7573;SDS011;3828;48.922;9.116;2023-03-03T07:15:15;1.60;;;1.60;;
7573;SDS011;3828;48.922;9.116;2023-03-03T07:17:46;1.40;;;1.40;;
7573;SDS011;3828;48.922;9.116;2023-03-03T07:20:17;1.40;;;1.40;;
7573;SDS011;3828;48.922;9.116;2023-03-03T07:22:45;1.50;;;1.50;;
7573;SDS011;3828;48.922;9.116;2023-03-03T07:25:17;1.60;;;1.60;;
7573;SDS011;3828;48.922;9.116;2023-03-03T07:27:46;1.63;;;1.63;;
7573;SDS011;3828;48.922;9.116;2023-03-03T07:30:21;1.70;;;1.70;;
7573;SDS011;3828;48.922;9.116;2023-03-03T07:32:50;1.60;;;1.60;;
7573;SDS011;3828;48.922;9.116;2023-03-03T07:35:28;1.63;;;1.63;;
7573;SDS011;3828;48.922;9.116;2023-03-03T07:38:08;1.50;;;1.50;;
7573;SDS011;3828;48.922;9.116;2023-03-03T07:40:50;1.50;;;1.50;;
7573;SDS011;3828;48.922;9.116;2023-03-03T07:43:26;1.50;;;1.50;;
7573;SDS011;3828;48.922;9.116;2023-03-03T07:45:59;1.60;;;1.60;;
7573;SDS011;3828;48.922;9.116;2023-03-03T07:48:30;1.40;;;1.40;;
7573;SDS011;3828;48.922;9.116;2023-03-03T07:51:02;1.50;;;1.50;;
7573;SDS011;3828;48.922;9.116;2023-03-03T07:53:39;1.40;;;1.40;;
7573;SDS011;3828;48.922;9.116;2023-03-03T07:56:12;1.50;;;1.50;;
7573;SDS011;3828;48.922;9.116;2023-03-03T07:58:42;1.40;;;1.40;;
7573;SDS011;3828;48.922;9.116;2023-03-03T08:04:04;1.30;;;1.30;;
7573;SDS011;3828;48.922;9.116;2023-03-03T08:06:42;1.40;;;1.40;;
7573;SDS011;3828;48.922;9.116;2023-03-03T08:09:18;1.30;;;1.30;;
7573;SDS011;3828;48.922;9.116;2023-03-03T08:11:55;1.50;;;1.50;;
7573;SDS011;3828;48.922;9.116;2023-03-03T08:14:26;1.33;;;1.33;;
7573;SDS011;3828;48.922;9.116;2023-03-03T08:16:57;1.40;;;1.40;;
7573;SDS011;3828;48.922;9.116;2023-03-03T08:19:23;1.10;;;1.10;;
7573;SDS011;3828;48.922;9.116;2023-03-03T08:21:51;1.10;;;1.10;;
7573;SDS011;3828;48.922;9.116;2023-03-03T08:24:23;1.20;;;1.20;;
7573;SDS011;3828;48.922;9.116;2023-03-03T08:26:51;1.10;;;1.10;;
7573;SDS011;3828;48.922;9.116;2023-03-03T08:29:18;1.10;;;1.10;;
7573;SDS011;3828;48.922;9.116;2023-03-03T08:31:45;1.00;;;1.00;;
7573;SDS011;3828;48.922;9.116;2023-03-03T08:34:14;1.13;;;1.13;;
7573;SDS011;3828;48.922;9.116;2023-03-03T08:36:41;1.20;;;1.20;;
7573;SDS011;3828;48.922;9.116;2023-03-03T08:39:08;1.00;;;1.00;;
7573;SDS011;3828;48.922;9.116;2023-03-03T08:41:35;1.10;;;1.10;;
7573;SDS011;3828;48.922;9.116;2023-03-03T08:44:03;0.90;;;0.90;;
7573;SDS011;3828;48.922;9.116;2023-03-03T08:46:30;1.03;;;1.03;;
7573;SDS011;3828;48.922;9.116;2023-03-03T08:48:57;1.00;;;1.00;;
7573;SDS011;3828;48.922;9.116;2023-03-03T08:51:25;1.10;;;1.10;;
7573;SDS011;3828;48.922;9.116;2023-03-03T08:53:52;1.00;;;1.00;;
7573;SDS011;3828;48.922;9.116;2023-03-03T08:56:19;1.00;;;1.00;;
7573;SDS011;3828;48.922;9.116;2023-03-03T08:58:46;0.90;;;0.90;;
7573;SDS011;3828;48.922;9.116;2023-03-03T09:01:14;0.97;;;0.97;;
7573;SDS011;3828;48.922;9.116;2023-03-03T09:03:41;0.90;;;0.90;;
7573;SDS011;3828;48.922;9.116;2023-03-03T09:06:07;0.90;;;0.90;;
7573;SDS011;3828;48.922;9.116;2023-03-03T09:08:36;0.97;;;0.97;;
7573;SDS011;3828;48.922;9.116;2023-03-03T09:11:08;0.90;;;0.90;;
7573;SDS011;3828;48.922;9.116;2023-03-03T09:13:37;0.80;;;0.80;;
7573;SDS011;3828;48.922;9.116;2023-03-03T09:16:06;0.90;;;0.90;;
7573;SDS011;3828;48.922;9.116;2023-03-03T09:18:39;1.00;;;1.00;;
7573;SDS011;3828;48.922;9.116;2023-03-03T09:21:18;0.90;;;0.90;;
7573;SDS011;3828;48.922;9.116;2023-03-03T09:23:49;0.80;;;0.80;;
7573;SDS011;3828;48.922;9.116;2023-03-03T09:26:21;0.90;;;0.90;;
7573;SDS011;3828;48.922;9.116;2023-03-03T09:28:52;0.90;;;0.90;;
7573;SDS011;3828;48.922;9.116;2023-03-03T09:31:22;1.00;;;1.00;;
7573;SDS011;3828;48.922;9.116;2023-03-03T09:33:51;0.90;;;0.90;;
7573;SDS011;3828;48.922;9.116;2023-03-03T09:36:22;1.10;;;1.10;;
7573;SDS011;3828;48.922;9.116;2023-03-03T09:38:52;0.90;;;0.90;;
7573;SDS011;3828;48.922;9.116;2023-03-03T09:41:30;0.90;;;0.90;;
7573;SDS011;3828;48.922;9.116;2023-03-03T09:44:12;0.80;;;0.80;;
7573;SDS011;3828;48.922;9.116;2023-03-03T09:46:55;0.90;;;0.90;;
7573;SDS011;3828;48.922;9.116;2023-03-03T09:49:31;0.93;;;0.93;;
7573;SDS011;3828;48.922;9.116;2023-03-03T09:52:08;0.90;;;0.90;;
7573;SDS011;3828;48.922;9.116;2023-03-03T09:54:50;0.90;;;0.90;;
7573;SDS011;3828;48.922;9.116;2023-03-03T09:57:24;0.90;;;0.90;;
7573;SDS011;3828;48.922;9.116;2023-03-03T10:00:06;1.00;;;1.00;;
7573;SDS011;3828;48.922;9.116;2023-03-03T10:02:55;0.93;;;0.93;;
7573;SDS011;3828;48.922;9.116;2023-03-03T10:05:40;0.90;;;0.90;;
7573;SDS011;3828;48.922;9.116;2023-03-03T10:08:19;1.00;;;1.00;;
7573;SDS011;3828;48.922;9.116;2023-03-03T10:10:56;0.97;;;0.97;;
7573;SDS011;3828;48.922;9.116;2023-03-03T10:13:42;1.00;;;1.00;;
7573;SDS011;3828;48.922;9.116;2023-03-03T10:16:21;1.00;;;1.00;;
7573;SDS011;3828;48.922;9.116;2023-03-03T10:19:06;1.00;;;1.00;;
7573;SDS011;3828;48.922;9.116;2023-03-03T10:21:41;1.07;;;1.07;;
7573;SDS011;3828;48.922;9.116;2023-03-03T10:24:18;1.13;;;1.13;;
7573;SDS011;3828;48.922;9.116;2023-03-03T10:27:00;1.00;;;1.00;;
7573;SDS011;3828;48.922;9.116;2023-03-03T10:29:34;1.00;;;1.00;;
7573;SDS011;3828;48.922;9.116;2023-03-03T10:40:58;1.00;;;1.00;;
7573;SDS011;3828;48.922;9.116;2023-03-03T10:43:47;1.10;;;1.10;;
7573;SDS011;3828;48.922;9.116;2023-03-03T10:46:33;1.00;;;1.00;;
7573;SDS011;3828;48.922;9.116;2023-03-03T10:49:21;1.00;;;1.00;;
7573;SDS011;3828;48.922;9.116;2023-03-03T10:52:05;0.80;;;0.80;;
7573;SDS011;3828;48.922;9.116;2023-03-03T10:54:48;1.00;;;1.00;;
7573;SDS011;3828;48.922;9.116;2023-03-03T10:57:25;0.90;;;0.90;;
7573;SDS011;3828;48.922;9.116;2023-03-03T11:00:05;0.87;;;0.87;;
7573;SDS011;3828;48.922;9.116;2023-03-03T11:02:44;0.90;;;0.90;;
7573;SDS011;3828;48.922;9.116;2023-03-03T11:05:22;0.80;;;0.80;;
7573;SDS011;3828;48.922;9.116;2023-03-03T11:07:59;1.00;;;1.00;;
7573;SDS011;3828;48.922;9.116;2023-03-03T11:10:31;0.90;;;0.90;;
7573;SDS011;3828;48.922;9.116;2023-03-03T11:13:09;0.83;;;0.83;;
7573;SDS011;3828;48.922;9.116;2023-03-03T11:15:52;0.90;;;0.90;;
7573;SDS011;3828;48.922;9.116;2023-03-03T11:18:33;0.90;;;0.90;;
7573;SDS011;3828;48.922;9.116;2023-03-03T11:21:14;1.00;;;1.00;;
7573;SDS011;3828;48.922;9.116;2023-03-03T11:23:55;0.90;;;0.90;;
7573;SDS011;3828;48.922;9.116;2023-03-03T11:29:23;0.90;;;0.90;;
7573;SDS011;3828;48.922;9.116;2023-03-03T11:32:07;0.90;;;0.90;;
7573;SDS011;3828;48.922;9.116;2023-03-03T11:34:59;0.90;;;0.90;;
7573;SDS011;3828;48.922;9.116;2023-03-03T11:37:42;0.90;;;0.90;;
7573;SDS011;3828;48.922;9.116;2023-03-03T11:40:18;1.00;;;1.00;;
7573;SDS011;3828;48.922;9.116;2023-03-03T11:42:52;0.90;;;0.90;;
7573;SDS011;3828;48.922;9.116;2023-03-03T11:45:27;1.00;;;1.00;;
7573;SDS011;3828;48.922;9.116;2023-03-03T11:48:01;0.90;;;0.90;;
7573;SDS011;3828;48.922;9.116;2023-03-03T11:50:34;0.80;;;0.80;;
7573;SDS011;3828;48.922;9.116;2023-03-03T11:53:08;0.90;;;0.90;;
7573;SDS011;3828;48.922;9.116;2023-03-03T11:55:51;0.80;;;0.80;;
7573;SDS011;3828;48.922;9.116;2023-03-03T11:58:24;0.70;;;0.70;;
7573;SDS011;3828;48.922;9.116;2023-03-03T12:00:55;0.80;;;0.80;;
7573;SDS011;3828;48.922;9.116;2023-03-03T12:03:29;0.90;;;0.90;;
7573;SDS011;3828;48.922;9.116;2023-03-03T12:06:03;1.00;;;1.00;;
7573;SDS011;3828;48.922;9.116;2023-03-03T12:08:44;0.93;;;0.93;;
7573;SDS011;3828;48.922;9.116;2023-03-03T12:11:24;0.80;;;0.80;;
7573;SDS011;3828;48.922;9.116;2023-03-03T12:13:55;0.90;;;0.90;;
7573;SDS011;3828;48.922;9.116;2023-03-03T12:16:41;0.97;;;0.97;;
7573;SDS011;3828;48.922;9.116;2023-03-03T12:19:24;0.90;;;0.90;;
7573;SDS011;3828;48.922;9.116;2023-03-03T12:22:07;1.10;;;1.10;;
7573;SDS011;3828;48.922;9.116;2023-03-03T12:24:55;0.90;;;0.90;;
7573;SDS011;3828;48.922;9.116;2023-03-03T12:27:51;1.20;;;1.20;;
7573;SDS011;3828;48.922;9.116;2023-03-03T12:30:32;0.90;;;0.90;;
7573;SDS011;3828;48.922;9.116;2023-03-03T12:33:14;0.87;;;0.87;;
7573;SDS011;3828;48.922;9.116;2023-03-03T12:35:51;1.10;;;1.10;;
7573;SDS011;3828;48.922;9.116;2023-03-03T12:38:29;0.90;;;0.90;;
7573;SDS011;3828;48.922;9.116;2023-03-03T12:41:02;1.00;;;1.00;;
7573;SDS011;3828;48.922;9.116;2023-03-03T12:43:50;0.80;;;0.80;;
7573;SDS011;3828;48.922;9.116;2023-03-03T12:46:24;0.90;;;0.90;;
7573;SDS011;3828;48.922;9.116;2023-03-03T12:49:00;0.87;;;0.87;;
7573;SDS011;3828;48.922;9.116;2023-03-03T12:51:32;0.90;;;0.90;;
7573;SDS011;3828;48.922;9.116;2023-03-03T12:54:18;0.97;;;0.97;;
7573;SDS011;3828;48.922;9.116;2023-03-03T12:57:03;0.90;;;0.90;;
7573;SDS011;3828;48.922;9.116;2023-03-03T12:59:38;0.80;;;0.80;;
7573;SDS011;3828;48.922;9.116;2023-03-03T13:02:19;0.90;;;0.90;;
7573;SDS011;3828;48.922;9.116;2023-03-03T13:05:09;0.80;;;0.80;;
7573;SDS011;3828;48.922;9.116;2023-03-03T13:07:56;1.03;;;1.03;;
7573;SDS011;3828;48.922;9.116;2023-03-03T13:10:34;1.00;;;1.00;;
7573;SDS011;3828;48.922;9.116;2023-03-03T13:13:07;0.90;;;0.90;;
7573;SDS011;3828;48.922;9.116;2023-03-03T13:15:42;0.80;;;0.80;;
7573;SDS011;3828;48.922;9.116;2023-03-03T13:18:20;0.80;;;0.80;;
7573;SDS011;3828;48.922;9.116;2023-03-03T13:20:56;0.80;;;0.80;;
7573;SDS011;3828;48.922;9.116;2023-03-03T13:23:34;0.80;;;0.80;;
7573;SDS011;3828;48.922;9.116;2023-03-03T13:26:14;0.80;;;0.80;;
7573;SDS011;3828;48.922;9.116;2023-03-03T13:28:49;0.80;;;0.80;;
7573;SDS011;3828;48.922;9.116;2023-03-03T13:31:25;0.80;;;0.80;;
7573;SDS011;3828;48.922;9.116;2023-03-03T13:33:57;0.60;;;0.60;;
7573;SDS011;3828;48.922;9.116;2023-03-03T13:36:27;0.60;;;0.60;;
7573;SDS011;3828;48.922;9.116;2023-03-03T13:39:04;0.50;;;0.50;;
7573;SDS011;3828;48.922;9.116;2023-03-03T13:41:40;0.60;;;0.60;;
7573;SDS011;3828;48.922;9.116;2023-03-03T13:44:14;0.50;;;0.50;;
7573;SDS011;3828;48.922;9.116;2023-03-03T13:46:49;0.50;;;0.50;;
7573;SDS011;3828;48.922;9.116;2023-03-03T13:49:31;0.50;;;0.50;;
7573;SDS011;3828;48.922;9.116;2023-03-03T13:52:06;0.60;;;0.60;;
7573;SDS011;3828;48.922;9.116;2023-03-03T13:54:39;0.53;;;0.53;;
7573;SDS011;3828;48.922;9.116;2023-03-03T13:57:23;0.60;;;0.60;;
7573;SDS011;3828;48.922;9.116;2023-03-03T14:00:06;0.40;;;0.40;;
7573;SDS011;3828;48.922;9.116;2023-03-03T14:02:46;0.40;;;0.40;;
7573;SDS011;3828;48.922;9.116;2023-03-03T14:05:22;0.50;;;0.50;;
7573;SDS011;3828;48.922;9.116;2023-03-03T14:07:56;0.80;;;0.80;;
7573;SDS011;3828;48.922;9.116;2023-03-03T14:10:27;0.40;;;0.40;;
7573;SDS011;3828;48.922;9.116;2023-03-03T14:13:01;0.30;;;0.30;;
7573;SDS011;3828;48.922;9.116;2023-03-03T14:15:30;0.50;;;0.50;;
7573;SDS011;3828;48.922;9.116;2023-03-03T14:20:55;0.40;;;0.40;;
7573;SDS011;3828;48.922;9.116;2023-03-03T14:23:29;0.40;;;0.40;;
7573;SDS011;3828;48.922;9.116;2023-03-03T14:26:05;0.30;;;0.30;;
7573;SDS011;3828;48.922;9.116;2023-03-03T14:28:37;0.30;;;0.30;;
7573;SDS011;3828;48.922;9.116;2023-03-03T14:31:14;0.37;;;0.37;;
7573;SDS011;3828;48.922;9.116;2023-03-03T14:33:45;0.40;;;0.40;;
7573;SDS011;3828;48.922;9.116;2023-03-03T14:36:25;0.40;;;0.40;;
7573;SDS011;3828;48.922;9.116;2023-03-03T14:38:53;0.40;;;0.40;;
7573;SDS011;3828;48.922;9.116;2023-03-03T14:41:34;0.30;;;0.30;;
7573;SDS011;3828;48.922;9.116;2023-03-03T14:47:05;0.30;;;0.30;;
7573;SDS011;3828;48.922;9.116;2023-03-03T14:49:44;0.50;;;0.50;;
7573;SDS011;3828;48.922;9.116;2023-03-03T14:52:18;0.40;;;0.40;;
7573;SDS011;3828;48.922;9.116;2023-03-03T14:54:47;0.30;;;0.30;;
7573;SDS011;3828;48.922;9.116;2023-03-03T14:57:18;0.40;;;0.40;;
7573;SDS011;3828;48.922;9.116;2023-03-03T14:59:54;0.50;;;0.50;;
7573;SDS011;3828;48.922;9.116;2023-03-03T15:02:28;0.50;;;0.50;;
7573;SDS011;3828;48.922;9.116;2023-03-03T15:05:14;0.40;;;0.40;;
7573;SDS011;3828;48.922;9.116;2023-03-03T15:07:48;0.40;;;0.40;;
7573;SDS011;3828;48.922;9.116;2023-03-03T15:10:28;0.50;;;0.50;;
7573;SDS011;3828;48.922;9.116;2023-03-03T15:13:08;0.40;;;0.40;;
7573;SDS011;3828;48.922;9.116;2023-03-03T15:15:59;0.30;;;0.30;;
7573;SDS011;3828;48.922;9.116;2023-03-03T15:18:30;0.47;;;0.47;;
7573;SDS011;3828;48.922;9.116;2023-03-03T15:20:58;0.50;;;0.50;;
7573;SDS011;3828;48.922;9.116;2023-03-03T15:23:36;0.57;;;0.57;;
7573;SDS011;3828;48.922;9.116;2023-03-03T15:26:09;0.50;;;0.50;;
7573;SDS011;3828;48.922;9.116;2023-03-03T15:28:48;0.50;;;0.50;;
7573;SDS011;3828;48.922;9.116;2023-03-03T15:31:28;0.40;;;0.40;;
7573;SDS011;3828;48.922;9.116;2023-03-03T15:34:05;0.43;;;0.43;;
7573;SDS011;3828;48.922;9.116;2023-03-03T15:36:48;0.80;;;0.80;;
7573;SDS011;3828;48.922;9.116;2023-03-03T15:39:21;0.50;;;0.50;;
7573;SDS011;3828;48.922;9.116;2023-03-03T15:41:56;0.57;;;0.57;;
7573;SDS011;3828;48.922;9.116;2023-03-03T15:44:34;0.40;;;0.40;;
7573;SDS011;3828;48.922;9.116;2023-03-03T15:47:25;0.50;;;0.50;;
7573;SDS011;3828;48.922;9.116;2023-03-03T15:50:10;0.40;;;0.40;;
7573;SDS011;3828;48.922;9.116;2023-03-03T15:53:00;0.60;;;0.60;;
7573;SDS011;3828;48.922;9.116;2023-03-03T15:55:37;0.50;;;0.50;;
7573;SDS011;3828;48.922;9.116;2023-03-03T15:58:21;0.60;;;0.60;;
7573;SDS011;3828;48.922;9.116;2023-03-03T16:01:10;0.80;;;0.80;;
7573;SDS011;3828;48.922;9.116;2023-03-03T16:03:44;0.70;;;0.70;;
7573;SDS011;3828;48.922;9.116;2023-03-03T16:06:15;0.70;;;0.70;;
7573;SDS011;3828;48.922;9.116;2023-03-03T16:08:48;0.80;;;0.80;;
7573;SDS011;3828;48.922;9.116;2023-03-03T16:11:33;0.60;;;0.60;;